sensor_id;sensor_type;location;lat;lon;timestamp;pressure;altitude;pressure_sealevel;temperature;humidity
13836;BME280;6988;52.614;13.500;2022-08-21T00:01:57;53937.88;;;-143.77;85.73
13836;BME280;6988;52.614;13.500;2022-08-21T00:06:49;53968.66;;;-143.77;86.22
13836;BME280;6988;52.614;13.500;2022-08-21T00:11:41;53944.03;;;-143.77;85.54
13836;BME280;6988;52.614;13.500;2022-08-21T00:16:34;53978.91;;;-143.77;85.83
13836;BME280;6988;52.614;13.500;2022-08-21T00:21:27;53937.88;;;-143.77;85.44
13836;BME280;6988;52.614;13.500;2022-08-21T00:26:19;53966.59;;;-143.77;85.21
13836;BME280;6988;52.614;13.500;2022-08-21T00:31:11;53974.81;;;-143.77;85.33
13836;BME280;6988;52.614;13.500;2022-08-21T00:36:03;54015.84;;;-143.77;85.40
13836;BME280;6988;52.614;13.500;2022-08-21T00:41:00;53983.00;;;-143.77;85.79
13836;BME280;6988;52.614;13.500;2022-08-21T00:45:53;53956.34;;;-143.77;85.51
13836;BME280;6988;52.614;13.500;2022-08-21T00:50:52;53978.91;;;-143.77;85.58
13836;BME280;6988;52.614;13.500;2022-08-21T00:55:46;53974.81;;;-143.77;85.47
13836;BME280;6988;52.614;13.500;2022-08-21T01:00:43;53974.81;;;-143.77;85.34
13836;BME280;6988;52.614;13.500;2022-08-21T01:05:36;53980.97;;;-143.77;85.03
13836;BME280;6988;52.614;13.500;2022-08-21T01:10:30;53983.00;;;-143.77;84.66
13836;BME280;6988;52.614;13.500;2022-08-21T01:15:26;53980.97;;;-143.77;84.92
13836;BME280;6988;52.614;13.500;2022-08-21T01:20:22;53993.28;;;-143.77;85.01
13836;BME280;6988;52.614;13.500;2022-08-21T01:25:19;53997.38;;;-143.77;84.57
13836;BME280;6988;52.614;13.500;2022-08-21T01:30:15;53980.97;;;-143.77;84.75
13836;BME280;6988;52.614;13.500;2022-08-21T01:35:09;54011.75;;;-143.77;84.69
13836;BME280;6988;52.614;13.500;2022-08-21T01:40:03;53952.25;;;-143.77;84.05
13836;BME280;6988;52.614;13.500;2022-08-21T01:44:56;53987.13;;;-143.77;83.94
13836;BME280;6988;52.614;13.500;2022-08-21T01:49:48;53974.81;;;-143.77;83.86
13836;BME280;6988;52.614;13.500;2022-08-21T01:54:41;53976.88;;;-143.77;84.11
13836;BME280;6988;52.614;13.500;2022-08-21T01:59:33;54011.75;;;-143.77;84.16
13836;BME280;6988;52.614;13.500;2022-08-21T02:04:27;53954.28;;;-143.77;84.63
13836;BME280;6988;52.614;13.500;2022-08-21T02:09:19;53966.59;;;-143.77;84.92
13836;BME280;6988;52.614;13.500;2022-08-21T02:14:14;53993.28;;;-143.77;84.37
13836;BME280;6988;52.614;13.500;2022-08-21T02:19:07;53983.00;;;-143.77;84.10
13836;BME280;6988;52.614;13.500;2022-08-21T02:24:00;53970.72;;;-143.77;83.73
13836;BME280;6988;52.614;13.500;2022-08-21T02:28:53;53985.06;;;-143.77;83.56
13836;BME280;6988;52.614;13.500;2022-08-21T02:33:45;54007.63;;;-143.77;83.03
13836;BME280;6988;52.614;13.500;2022-08-21T02:38:38;54019.94;;;-143.77;82.56
13836;BME280;6988;52.614;13.500;2022-08-21T02:43:31;54019.94;;;-143.77;82.86
13836;BME280;6988;52.614;13.500;2022-08-21T02:48:26;54032.25;;;-143.77;82.86
13836;BME280;6988;52.614;13.500;2022-08-21T02:53:19;54022.00;;;-143.77;83.03
13836;BME280;6988;52.614;13.500;2022-08-21T02:58:11;54024.06;;;-143.77;83.04
13836;BME280;6988;52.614;13.500;2022-08-21T03:03:08;54040.47;;;-143.77;83.06
13836;BME280;6988;52.614;13.500;2022-08-21T03:08:01;54069.19;;;-143.77;83.13
13836;BME280;6988;52.614;13.500;2022-08-21T03:12:53;54024.06;;;-143.77;82.92
13836;BME280;6988;52.614;13.500;2022-08-21T03:17:47;54060.97;;;-143.77;83.01
13836;BME280;6988;52.614;13.500;2022-08-21T03:22:41;54044.56;;;-143.77;83.15
13836;BME280;6988;52.614;13.500;2022-08-21T03:27:33;54032.25;;;-143.77;82.75
13836;BME280;6988;52.614;13.500;2022-08-21T03:32:26;54032.25;;;-143.77;83.00
13836;BME280;6988;52.614;13.500;2022-08-21T03:37:17;54007.63;;;-143.77;83.13
13836;BME280;6988;52.614;13.500;2022-08-21T03:42:11;54054.81;;;-143.77;82.72
13836;BME280;6988;52.614;13.500;2022-08-21T03:47:03;54019.94;;;-143.77;82.30
13836;BME280;6988;52.614;13.500;2022-08-21T03:51:55;54067.13;;;-143.77;82.44
13836;BME280;6988;52.614;13.500;2022-08-21T03:56:47;54060.97;;;-143.77;81.68
13836;BME280;6988;52.614;13.500;2022-08-21T04:01:51;54058.94;;;-143.77;81.90
13836;BME280;6988;52.614;13.500;2022-08-21T04:06:43;54044.56;;;-143.77;82.05
13836;BME280;6988;52.614;13.500;2022-08-21T04:11:35;54063.03;;;-143.77;81.92
13836;BME280;6988;52.614;13.500;2022-08-21T04:16:27;54087.66;;;-143.77;82.31
13836;BME280;6988;52.614;13.500;2022-08-21T04:21:20;54069.19;;;-143.77;82.35
13836;BME280;6988;52.614;13.500;2022-08-21T04:26:12;54040.47;;;-143.77;82.75
13836;BME280;6988;52.614;13.500;2022-08-21T04:31:03;54065.09;;;-143.77;82.64
13836;BME280;6988;52.614;13.500;2022-08-21T04:35:55;54063.03;;;-143.77;82.82
13836;BME280;6988;52.614;13.500;2022-08-21T04:40:49;54087.66;;;-143.77;82.71
13836;BME280;6988;52.614;13.500;2022-08-21T04:45:45;54067.13;;;-143.77;82.29
13836;BME280;6988;52.614;13.500;2022-08-21T04:50:43;54052.78;;;-143.77;81.88
13836;BME280;6988;52.614;13.500;2022-08-21T04:55:38;54040.47;;;-143.77;82.13
13836;BME280;6988;52.614;13.500;2022-08-21T05:00:32;54069.19;;;-143.77;81.99
13836;BME280;6988;52.614;13.500;2022-08-21T05:05:24;54028.16;;;-143.77;81.97
13836;BME280;6988;52.614;13.500;2022-08-21T05:10:19;54067.13;;;-143.77;81.65
13836;BME280;6988;52.614;13.500;2022-08-21T05:15:12;54081.50;;;-143.77;81.48
13836;BME280;6988;52.614;13.500;2022-08-21T05:20:07;54028.16;;;-143.77;81.63
13836;BME280;6988;52.614;13.500;2022-08-21T05:24:59;54093.81;;;-143.77;81.48
13836;BME280;6988;52.614;13.500;2022-08-21T05:29:50;54060.97;;;-143.77;81.38
13836;BME280;6988;52.614;13.500;2022-08-21T05:34:42;54048.66;;;-143.77;81.32
13836;BME280;6988;52.614;13.500;2022-08-21T05:39:35;54032.25;;;-143.77;81.11
13836;BME280;6988;52.614;13.500;2022-08-21T05:44:27;54069.19;;;-143.77;80.78
13836;BME280;6988;52.614;13.500;2022-08-21T05:49:18;54054.81;;;-143.77;79.84
13836;BME280;6988;52.614;13.500;2022-08-21T05:54:10;54063.03;;;-143.77;79.84
13836;BME280;6988;52.614;13.500;2022-08-21T05:59:03;54044.56;;;-143.77;79.75
13836;BME280;6988;52.614;13.500;2022-08-21T06:03:55;54089.72;;;-143.77;80.25
13836;BME280;6988;52.614;13.500;2022-08-21T06:08:47;54069.19;;;-143.77;80.47
13836;BME280;6988;52.614;13.500;2022-08-21T06:13:38;54060.97;;;-143.77;80.75
13836;BME280;6988;52.614;13.500;2022-08-21T06:18:33;54040.47;;;-143.77;79.67
13836;BME280;6988;52.614;13.500;2022-08-21T06:23:25;54028.16;;;-143.77;79.63
13836;BME280;6988;52.614;13.500;2022-08-21T06:28:17;54065.09;;;-143.77;79.40
13836;BME280;6988;52.614;13.500;2022-08-21T06:33:09;54044.56;;;-143.77;78.85
13836;BME280;6988;52.614;13.500;2022-08-21T06:38:02;54040.47;;;-143.77;78.79
13836;BME280;6988;52.614;13.500;2022-08-21T06:42:54;54028.16;;;-143.77;78.63
13836;BME280;6988;52.614;13.500;2022-08-21T06:47:46;54003.53;;;-143.77;79.02
13836;BME280;6988;52.614;13.500;2022-08-21T06:52:38;53991.22;;;-143.77;79.02
13836;BME280;6988;52.614;13.500;2022-08-21T06:57:32;54026.09;;;-143.77;78.12
13836;BME280;6988;52.614;13.500;2022-08-21T07:02:24;53989.16;;;-143.77;76.92
13836;BME280;6988;52.614;13.500;2022-08-21T07:07:16;53983.00;;;-143.77;76.16
13836;BME280;6988;52.614;13.500;2022-08-21T07:12:09;53989.16;;;-143.77;75.47
13836;BME280;6988;52.614;13.500;2022-08-21T07:17:02;53980.97;;;-143.77;75.08
13836;BME280;6988;52.614;13.500;2022-08-21T07:21:59;53935.84;;;-143.77;73.83
13836;BME280;6988;52.614;13.500;2022-08-21T07:26:51;53923.53;;;-143.77;73.70
13836;BME280;6988;52.614;13.500;2022-08-21T07:31:43;53903.00;;;-143.77;72.49
13836;BME280;6988;52.614;13.500;2022-08-21T07:36:36;53890.69;;;-143.77;71.54
13836;BME280;6988;52.614;13.500;2022-08-21T07:41:29;53876.34;;;-143.77;69.84
13836;BME280;6988;52.614;13.500;2022-08-21T07:46:22;53962.50;;;-143.77;69.75
13836;BME280;6988;52.614;13.500;2022-08-21T07:51:17;53888.63;;;-143.77;68.49
13836;BME280;6988;52.614;13.500;2022-08-21T07:56:10;53851.72;;;-143.77;67.56
13836;BME280;6988;52.614;13.500;2022-08-21T08:01:02;53913.25;;;-143.77;66.39
13836;BME280;6988;52.614;13.500;2022-08-21T08:05:55;53859.91;;;-143.77;66.95
13836;BME280;6988;52.614;13.500;2022-08-21T08:10:47;53849.66;;;-143.77;66.67
13836;BME280;6988;52.614;13.500;2022-08-21T08:15:41;53810.69;;;-143.77;64.03
13836;BME280;6988;52.614;13.500;2022-08-21T08:20:32;53831.19;;;-143.77;62.96
13836;BME280;6988;52.614;13.500;2022-08-21T08:25:26;53814.78;;;-143.77;61.41
13836;BME280;6988;52.614;13.500;2022-08-21T08:30:21;53818.88;;;-143.77;61.68
13836;BME280;6988;52.614;13.500;2022-08-21T08:35:15;53796.31;;;-143.77;61.16
13836;BME280;6988;52.614;13.500;2022-08-21T08:40:11;53714.25;;;-143.77;60.75
13836;BME280;6988;52.614;13.500;2022-08-21T08:45:08;53699.91;;;-143.77;59.00
13836;BME280;6988;52.614;13.500;2022-08-21T08:50:06;53687.59;;;-143.77;57.88
13836;BME280;6988;52.614;13.500;2022-08-21T08:55:04;53712.22;;;-143.77;56.57
13836;BME280;6988;52.614;13.500;2022-08-21T09:00:00;53706.06;;;-143.77;57.58
13836;BME280;6988;52.614;13.500;2022-08-21T09:04:54;53681.44;;;-143.77;55.90
13836;BME280;6988;52.614;13.500;2022-08-21T09:10:05;53714.25;;;-143.77;56.39
13836;BME280;6988;52.614;13.500;2022-08-21T09:15:09;53673.22;;;-143.77;55.83
13836;BME280;6988;52.614;13.500;2022-08-21T09:20:19;53712.22;;;-143.77;56.55
13836;BME280;6988;52.614;13.500;2022-08-21T09:25:24;53722.47;;;-143.77;54.60
13836;BME280;6988;52.614;13.500;2022-08-21T09:30:19;53730.66;;;-143.77;54.40
13836;BME280;6988;52.614;13.500;2022-08-21T09:35:17;53675.28;;;-143.77;54.21
13836;BME280;6988;52.614;13.500;2022-08-21T09:40:27;53712.22;;;-143.77;53.35
13836;BME280;6988;52.614;13.500;2022-08-21T09:45:21;53695.78;;;-143.77;52.57
13836;BME280;6988;52.614;13.500;2022-08-21T09:50:17;53714.25;;;-143.77;52.43
13836;BME280;6988;52.614;13.500;2022-08-21T09:55:20;53734.78;;;-143.77;52.96
13836;BME280;6988;52.614;13.500;2022-08-21T10:00:33;53726.56;;;-143.77;52.54
13836;BME280;6988;52.614;13.500;2022-08-21T10:05:26;53675.28;;;-143.77;53.23
13836;BME280;6988;52.614;13.500;2022-08-21T10:10:23;53662.97;;;-143.77;52.05
13836;BME280;6988;52.614;13.500;2022-08-21T10:15:28;53699.91;;;-143.77;51.81
13836;BME280;6988;52.614;13.500;2022-08-21T10:20:29;53634.25;;;-143.77;52.08
13836;BME280;6988;52.614;13.500;2022-08-21T10:25:35;53609.63;;;-143.77;50.56
13836;BME280;6988;52.614;13.500;2022-08-21T10:30:39;53652.72;;;-143.77;50.33
13836;BME280;6988;52.614;13.500;2022-08-21T10:35:40;53609.63;;;-143.77;50.91
13836;BME280;6988;52.614;13.500;2022-08-21T10:40:42;53613.72;;;-143.77;50.59
13836;BME280;6988;52.614;13.500;2022-08-21T10:45:51;53642.47;;;-143.77;49.10
13836;BME280;6988;52.614;13.500;2022-08-21T10:50:52;53638.34;;;-143.77;47.35
13836;BME280;6988;52.614;13.500;2022-08-21T10:55:55;53613.72;;;-143.77;46.90
13836;BME280;6988;52.614;13.500;2022-08-21T11:00:51;53568.59;;;-143.77;49.16
13836;BME280;6988;52.614;13.500;2022-08-21T11:05:52;53527.56;;;-143.77;47.50
13836;BME280;6988;52.614;13.500;2022-08-21T11:10:50;53486.53;;;-143.77;45.79
13836;BME280;6988;52.614;13.500;2022-08-21T11:15:52;53513.22;;;-143.77;44.98
13836;BME280;6988;52.614;13.500;2022-08-21T11:20:58;53466.03;;;-143.77;45.98
13836;BME280;6988;52.614;13.500;2022-08-21T11:26:02;53466.03;;;-143.77;45.01
13836;BME280;6988;52.614;13.500;2022-08-21T11:31:07;53513.22;;;-143.77;44.86
13836;BME280;6988;52.614;13.500;2022-08-21T11:36:15;53431.16;;;-143.77;43.85
13836;BME280;6988;52.614;13.500;2022-08-21T11:41:29;53449.63;;;-143.77;43.48
13836;BME280;6988;52.614;13.500;2022-08-21T11:46:32;53466.03;;;-143.77;44.34
13836;BME280;6988;52.614;13.500;2022-08-21T11:51:33;53478.34;;;-143.77;41.80
13836;BME280;6988;52.614;13.500;2022-08-21T11:56:35;53511.16;;;-143.77;43.11
13836;BME280;6988;52.614;13.500;2022-08-21T12:01:34;53418.84;;;-143.77;43.51
13836;BME280;6988;52.614;13.500;2022-08-21T12:06:31;53361.41;;;-143.77;42.71
13836;BME280;6988;52.614;13.500;2022-08-21T12:11:26;53326.53;;;-143.77;40.75
13836;BME280;6988;52.614;13.500;2022-08-21T12:16:33;53332.69;;;-143.77;41.63
13836;BME280;6988;52.614;13.500;2022-08-21T12:21:27;53361.41;;;-143.77;40.88
13836;BME280;6988;52.614;13.500;2022-08-21T12:26:29;53351.16;;;-143.77;39.49
13836;BME280;6988;52.614;13.500;2022-08-21T12:31:26;53392.19;;;-143.77;39.45
13836;BME280;6988;52.614;13.500;2022-08-21T12:36:24;53349.09;;;-143.77;38.77
13836;BME280;6988;52.614;13.500;2022-08-21T12:41:20;53289.63;;;-143.77;38.12
13836;BME280;6988;52.614;13.500;2022-08-21T12:46:17;53228.06;;;-143.77;39.22
13836;BME280;6988;52.614;13.500;2022-08-21T12:51:15;53162.44;;;-143.77;38.15
13836;BME280;6988;52.614;13.500;2022-08-21T12:56:11;53150.13;;;-143.77;37.96
13836;BME280;6988;52.614;13.500;2022-08-21T13:01:13;53158.34;;;-143.77;36.46
13836;BME280;6988;52.614;13.500;2022-08-21T13:06:17;53162.44;;;-143.77;36.75
13836;BME280;6988;52.614;13.500;2022-08-21T13:11:13;53256.78;;;-143.77;36.99
13836;BME280;6988;52.614;13.500;2022-08-21T13:16:07;53203.47;;;-143.77;35.52
13836;BME280;6988;52.614;13.500;2022-08-21T13:21:07;53187.06;;;-143.77;34.71
13836;BME280;6988;52.614;13.500;2022-08-21T13:26:00;53195.25;;;-143.77;34.80
13836;BME280;6988;52.614;13.500;2022-08-21T13:30:54;53240.38;;;-143.77;35.21
13836;BME280;6988;52.614;13.500;2022-08-21T13:35:50;53232.19;;;-143.77;35.13
13836;BME280;6988;52.614;13.500;2022-08-21T13:40:49;53240.38;;;-143.77;35.26
13836;BME280;6988;52.614;13.500;2022-08-21T13:45:47;53256.78;;;-143.77;35.53
13836;BME280;6988;52.614;13.500;2022-08-21T13:50:42;53238.34;;;-143.77;34.65
13836;BME280;6988;52.614;13.500;2022-08-21T13:55:38;53248.59;;;-143.77;34.82
13836;BME280;6988;52.614;13.500;2022-08-21T14:00:35;53242.44;;;-143.77;34.28
13836;BME280;6988;52.614;13.500;2022-08-21T14:05:33;53277.31;;;-143.77;34.75
13836;BME280;6988;52.614;13.500;2022-08-21T14:10:25;53279.34;;;-143.77;34.96
13836;BME280;6988;52.614;13.500;2022-08-21T14:15:25;53297.81;;;-143.77;34.75
13836;BME280;6988;52.614;13.500;2022-08-21T14:20:30;53293.72;;;-143.77;35.69
13836;BME280;6988;52.614;13.500;2022-08-21T14:25:37;53314.22;;;-143.77;35.33
13836;BME280;6988;52.614;13.500;2022-08-21T14:30:34;53301.91;;;-143.77;36.36
13836;BME280;6988;52.614;13.500;2022-08-21T14:35:28;53308.06;;;-143.77;36.13
13836;BME280;6988;52.614;13.500;2022-08-21T14:40:23;53267.06;;;-143.77;36.53
13836;BME280;6988;52.614;13.500;2022-08-21T14:45:18;53301.91;;;-143.77;35.81
13836;BME280;6988;52.614;13.500;2022-08-21T14:50:13;53377.81;;;-143.77;36.33
13836;BME280;6988;52.614;13.500;2022-08-21T14:55:08;53383.97;;;-143.77;38.21
13836;BME280;6988;52.614;13.500;2022-08-21T15:00:06;53414.75;;;-143.77;38.77
13836;BME280;6988;52.614;13.500;2022-08-21T15:04:59;53447.56;;;-143.77;38.64
13836;BME280;6988;52.614;13.500;2022-08-21T15:09:51;53431.16;;;-143.77;39.75
13836;BME280;6988;52.614;13.500;2022-08-21T15:14:44;53474.25;;;-143.77;39.67
13836;BME280;6988;52.614;13.500;2022-08-21T15:19:36;53496.81;;;-143.77;40.04
13836;BME280;6988;52.614;13.500;2022-08-21T15:24:28;53482.44;;;-143.77;40.04
13836;BME280;6988;52.614;13.500;2022-08-21T15:29:20;53521.41;;;-143.77;40.90
13836;BME280;6988;52.614;13.500;2022-08-21T15:34:13;53517.31;;;-143.77;41.24
13836;BME280;6988;52.614;13.500;2022-08-21T15:39:06;53568.59;;;-143.77;42.26
13836;BME280;6988;52.614;13.500;2022-08-21T15:43:58;53535.78;;;-143.77;42.49
13836;BME280;6988;52.614;13.500;2022-08-21T15:48:50;53525.53;;;-143.77;43.09
13836;BME280;6988;52.614;13.500;2022-08-21T15:53:43;53539.88;;;-143.77;42.16
13836;BME280;6988;52.614;13.500;2022-08-21T15:58:36;53541.94;;;-143.77;42.98
13836;BME280;6988;52.614;13.500;2022-08-21T16:03:29;53564.50;;;-143.77;42.04
13836;BME280;6988;52.614;13.500;2022-08-21T16:08:21;53560.41;;;-143.77;42.92
13836;BME280;6988;52.614;13.500;2022-08-21T16:13:20;53519.38;;;-143.77;42.77
13836;BME280;6988;52.614;13.500;2022-08-21T16:18:16;53605.53;;;-143.77;43.64
13836;BME280;6988;52.614;13.500;2022-08-21T16:23:08;53619.88;;;-143.77;44.58
13836;BME280;6988;52.614;13.500;2022-08-21T16:28:01;53593.22;;;-143.77;44.55
13836;BME280;6988;52.614;13.500;2022-08-21T16:32:54;53667.06;;;-143.77;44.13
13836;BME280;6988;52.614;13.500;2022-08-21T16:37:46;53613.72;;;-143.77;44.68
13836;BME280;6988;52.614;13.500;2022-08-21T16:42:41;53601.44;;;-143.77;44.33
13836;BME280;6988;52.614;13.500;2022-08-21T16:47:33;53605.53;;;-143.77;44.63
13836;BME280;6988;52.614;13.500;2022-08-21T16:52:26;53628.09;;;-143.77;45.56
13836;BME280;6988;52.614;13.500;2022-08-21T16:57:18;53638.34;;;-143.77;45.43
13836;BME280;6988;52.614;13.500;2022-08-21T17:02:25;53640.41;;;-143.77;48.18
13836;BME280;6988;52.614;13.500;2022-08-21T17:07:18;53638.34;;;-143.77;50.32
13836;BME280;6988;52.614;13.500;2022-08-21T17:12:12;53626.03;;;-143.77;51.83
13836;BME280;6988;52.614;13.500;2022-08-21T17:17:07;53634.25;;;-143.77;52.10
13836;BME280;6988;52.614;13.500;2022-08-21T17:22:00;53640.41;;;-143.77;52.51
13836;BME280;6988;52.614;13.500;2022-08-21T17:26:52;53650.66;;;-143.77;53.06
13836;BME280;6988;52.614;13.500;2022-08-21T17:31:47;53650.66;;;-143.77;53.62
13836;BME280;6988;52.614;13.500;2022-08-21T17:36:39;53671.19;;;-143.77;52.44
13836;BME280;6988;52.614;13.500;2022-08-21T17:41:32;53675.28;;;-143.77;54.07
13836;BME280;6988;52.614;13.500;2022-08-21T17:46:27;53677.34;;;-143.77;54.74
13836;BME280;6988;52.614;13.500;2022-08-21T17:51:21;53714.25;;;-143.77;55.37
13836;BME280;6988;52.614;13.500;2022-08-21T17:56:16;53673.22;;;-143.77;54.73
13836;BME280;6988;52.614;13.500;2022-08-21T18:01:10;53662.97;;;-143.77;55.07
13836;BME280;6988;52.614;13.500;2022-08-21T18:06:02;53695.78;;;-143.77;55.19
13836;BME280;6988;52.614;13.500;2022-08-21T18:10:56;53716.31;;;-143.77;54.78
13836;BME280;6988;52.614;13.500;2022-08-21T18:15:51;53732.72;;;-143.77;56.19
13836;BME280;6988;52.614;13.500;2022-08-21T18:20:44;53730.66;;;-143.77;55.55
13836;BME280;6988;52.614;13.500;2022-08-21T18:25:36;53710.16;;;-143.77;54.74
13836;BME280;6988;52.614;13.500;2022-08-21T18:30:29;53720.41;;;-143.77;55.22
13836;BME280;6988;52.614;13.500;2022-08-21T18:35:22;53753.25;;;-143.77;57.77
13836;BME280;6988;52.614;13.500;2022-08-21T18:40:13;53724.50;;;-143.77;59.25
13836;BME280;6988;52.614;13.500;2022-08-21T18:45:10;53736.81;;;-143.77;59.47
13836;BME280;6988;52.614;13.500;2022-08-21T18:50:06;53788.13;;;-143.77;60.88
13836;BME280;6988;52.614;13.500;2022-08-21T18:54:58;53784.00;;;-143.77;61.93
13836;BME280;6988;52.614;13.500;2022-08-21T18:59:50;53784.00;;;-143.77;61.86
13836;BME280;6988;52.614;13.500;2022-08-21T19:04:42;53790.16;;;-143.77;62.75
13836;BME280;6988;52.614;13.500;2022-08-21T19:09:35;53798.38;;;-143.77;62.90
13836;BME280;6988;52.614;13.500;2022-08-21T19:14:26;53818.88;;;-143.77;62.82
13836;BME280;6988;52.614;13.500;2022-08-21T19:19:18;53829.16;;;-143.77;62.86
13836;BME280;6988;52.614;13.500;2022-08-21T19:24:10;53814.78;;;-143.77;63.18
13836;BME280;6988;52.614;13.500;2022-08-21T19:29:07;53839.41;;;-143.77;63.94
13836;BME280;6988;52.614;13.500;2022-08-21T19:34:05;53839.41;;;-143.77;64.14
13836;BME280;6988;52.614;13.500;2022-08-21T19:38:59;53833.25;;;-143.77;64.26
13836;BME280;6988;52.614;13.500;2022-08-21T19:43:55;53851.72;;;-143.77;64.54
13836;BME280;6988;52.614;13.500;2022-08-21T19:48:49;53880.44;;;-143.77;64.41
13836;BME280;6988;52.614;13.500;2022-08-21T19:53:41;53829.16;;;-143.77;64.76
13836;BME280;6988;52.614;13.500;2022-08-21T19:58:37;53855.81;;;-143.77;65.09
13836;BME280;6988;52.614;13.500;2022-08-21T20:03:29;53849.66;;;-143.77;65.20
13836;BME280;6988;52.614;13.500;2022-08-21T20:08:22;53872.22;;;-143.77;65.31
13836;BME280;6988;52.614;13.500;2022-08-21T20:13:14;53896.84;;;-143.77;65.66
13836;BME280;6988;52.614;13.500;2022-08-21T20:18:06;53900.94;;;-143.77;66.37
13836;BME280;6988;52.614;13.500;2022-08-21T20:22:58;53900.94;;;-143.77;66.18
13836;BME280;6988;52.614;13.500;2022-08-21T20:27:51;53888.63;;;-143.77;66.12
13836;BME280;6988;52.614;13.500;2022-08-21T20:32:43;53898.91;;;-143.77;66.31
13836;BME280;6988;52.614;13.500;2022-08-21T20:37:35;53876.34;;;-143.77;66.38
13836;BME280;6988;52.614;13.500;2022-08-21T20:42:27;53917.38;;;-143.77;67.04
13836;BME280;6988;52.614;13.500;2022-08-21T20:47:20;53905.06;;;-143.77;67.60
13836;BME280;6988;52.614;13.500;2022-08-21T20:52:15;53911.22;;;-143.77;66.81
13836;BME280;6988;52.614;13.500;2022-08-21T20:57:13;53937.88;;;-143.77;67.47
13836;BME280;6988;52.614;13.500;2022-08-21T21:02:27;53929.69;;;-143.77;67.46
13836;BME280;6988;52.614;13.500;2022-08-21T21:07:30;53946.09;;;-143.77;67.78
13836;BME280;6988;52.614;13.500;2022-08-21T21:12:32;53933.78;;;-143.77;67.94
13836;BME280;6988;52.614;13.500;2022-08-21T21:17:34;53931.72;;;-143.77;67.61
13836;BME280;6988;52.614;13.500;2022-08-21T21:22:33;53946.09;;;-143.77;67.16
13836;BME280;6988;52.614;13.500;2022-08-21T21:27:31;53917.38;;;-143.77;67.21
13836;BME280;6988;52.614;13.500;2022-08-21T21:32:27;53954.28;;;-143.77;67.24
13836;BME280;6988;52.614;13.500;2022-08-21T21:37:24;53935.84;;;-143.77;67.05
13836;BME280;6988;52.614;13.500;2022-08-21T21:42:31;53941.97;;;-143.77;67.10
13836;BME280;6988;52.614;13.500;2022-08-21T22:03:44;53997.38;;;-143.77;68.47
13836;BME280;6988;52.614;13.500;2022-08-21T22:08:50;53966.59;;;-143.77;68.70
13836;BME280;6988;52.614;13.500;2022-08-21T22:13:55;53993.28;;;-143.77;69.24
13836;BME280;6988;52.614;13.500;2022-08-21T22:18:59;53980.97;;;-143.77;68.84
13836;BME280;6988;52.614;13.500;2022-08-21T22:24:01;53987.13;;;-143.77;69.41
13836;BME280;6988;52.614;13.500;2022-08-21T22:28:54;53974.81;;;-143.77;69.58
13836;BME280;6988;52.614;13.500;2022-08-21T22:34:06;53946.09;;;-143.77;69.64
13836;BME280;6988;52.614;13.500;2022-08-21T22:39:04;53985.06;;;-143.77;69.98
13836;BME280;6988;52.614;13.500;2022-08-21T22:44:00;53964.56;;;-143.77;69.82
13836;BME280;6988;52.614;13.500;2022-08-21T22:49:02;54015.84;;;-143.77;70.09
13836;BME280;6988;52.614;13.500;2022-08-21T22:53:56;53978.91;;;-143.77;70.36
13836;BME280;6988;52.614;13.500;2022-08-21T22:58:54;53993.28;;;-143.77;70.20
13836;BME280;6988;52.614;13.500;2022-08-21T23:03:49;53983.00;;;-143.77;69.51
13836;BME280;6988;52.614;13.500;2022-08-21T23:08:43;53995.31;;;-143.77;70.13
13836;BME280;6988;52.614;13.500;2022-08-21T23:13:42;54003.53;;;-143.77;70.71
13836;BME280;6988;52.614;13.500;2022-08-21T23:18:50;54011.75;;;-143.77;71.63
13836;BME280;6988;52.614;13.500;2022-08-21T23:23:59;54017.91;;;-143.77;72.07
13836;BME280;6988;52.614;13.500;2022-08-21T23:29:07;54030.22;;;-143.77;72.18
13836;BME280;6988;52.614;13.500;2022-08-21T23:34:16;53999.44;;;-143.77;71.93
13836;BME280;6988;52.614;13.500;2022-08-21T23:39:29;54011.75;;;-143.77;71.84
13836;BME280;6988;52.614;13.500;2022-08-21T23:44:36;54007.63;;;-143.77;71.41
13836;BME280;6988;52.614;13.500;2022-08-21T23:49:47;53993.28;;;-143.77;70.84
13836;BME280;6988;52.614;13.500;2022-08-21T23:55:20;54013.78;;;-143.77;71.32
